Weather at Meerut Sw Airport

Public forecast

Using degrees Celsius for public forecast. Weather courtesy of forecast.io.

Closest aviation weather report (METAR) to Meerut Sw Airport

Report is more than 2 hours old.

Closest report is Safdarjung Airport, 31.4 nm (58.2 km) SW. Retrieved 2020/09/19 13:00 UTC (2 hours ago):

VIDD 191300Z 34003KT 4000 HZ FEW040 SCT100 34/25 Q1000 NOSIG

Closest aviation forecast (TAF) to Meerut Sw Airport

Closest forecast is Indira Gandhi International Airport, 36.4 nm (67.5 km) SW. Retrieved 2020/09/19 12:00 UTC (3 hours ago):

TAF VIDP 191100Z 1912/2018 35006KT 3500 HZ FEW035 SCT100 BECMG 1915/1917 2500 HZ BR BECMG 2000/2002 VRB02KT 1500 BR BECMG 2004/2006 35006KT 4000 HZ FEW100 BECMG 2015/2017 VRB02KT 2500 HZ